Time;durP1;ratioP1;P1;durP2;ratioP2;P2;SDS_P1;SDS_P2;PMS_P1;PMS_P2;Temp;Humidity;BMP_temperature;BMP_pressure;BME280_temperature;BME280_humidity;BME280_pressure;Samples;Min_cycle;Max_cycle;Signal;HPM_P1;HPM_P2
2021/03/15 00:00:51;;;;;;;10.75;7.05;;;;;;;3.71;100.00;99960.81;4968627;28;20046;-58
2021/03/15 00:03:22;;;;;;;12.02;7.40;;;;;;;3.74;100.00;99965.97;4960685;28;20054;-58
2021/03/15 00:05:56;;;;;;;12.52;7.72;;;;;;;3.76;100.00;99955.94;4969347;28;20050;-60
2021/03/15 00:08:23;;;;;;;16.48;7.93;;;;;;;3.69;100.00;99959.00;4970722;28;20058;-57
2021/03/15 00:10:49;;;;;;;14.63;7.38;;;;;;;3.67;100.00;99963.16;4971604;28;20115;-58
2021/03/15 00:13:17;;;;;;;13.30;8.40;;;;;;;3.71;100.00;99958.28;4969997;28;20367;-60
2021/03/15 00:15:44;;;;;;;13.00;7.97;;;;;;;3.60;100.00;99961.16;4969970;28;20051;-60
2021/03/15 00:18:11;;;;;;;14.48;7.93;;;;;;;3.69;100.00;99952.25;4967494;28;20351;-60
2021/03/15 00:20:38;;;;;;;14.00;8.63;;;;;;;3.72;100.00;99959.13;4968413;28;20593;-58
2021/03/15 00:23:06;;;;;;;14.68;9.15;;;;;;;3.79;100.00;99964.53;4969196;28;20050;-60
2021/03/15 00:25:32;;;;;;;16.13;7.65;;;;;;;3.78;100.00;99965.31;4969432;28;20051;-60
2021/03/15 00:27:59;;;;;;;12.82;8.20;;;;;;;3.85;100.00;99958.84;4968322;28;20238;-61
2021/03/15 00:30:26;;;;;;;20.25;8.80;;;;;;;3.69;100.00;99959.00;4967458;28;20409;-61
2021/03/15 00:32:53;;;;;;;11.98;7.70;;;;;;;3.71;100.00;99960.81;4967929;28;20113;-61
2021/03/15 00:35:21;;;;;;;16.88;8.25;;;;;;;3.75;100.00;99969.41;4966421;28;20125;-59
2021/03/15 00:37:48;;;;;;;15.32;7.80;;;;;;;3.84;100.00;99967.25;4969580;28;20050;-57
2021/03/15 00:40:22;;;;;;;14.73;8.25;;;;;;;3.72;100.00;99967.59;4970214;28;20050;-61
2021/03/15 00:42:50;;;;;;;14.73;7.47;;;;;;;3.79;100.00;99964.53;4970789;28;20099;-61
2021/03/15 00:45:22;;;;;;;15.20;8.13;;;;;;;3.73;100.00;99961.72;4962107;28;20059;-61
2021/03/15 00:47:50;;;;;;;16.25;7.50;;;;;;;3.74;100.00;99967.63;4968768;28;20478;-59
2021/03/15 00:50:39;;;;;;;12.38;7.10;;;;;;;3.71;100.00;99958.28;4968095;28;20061;-61
2021/03/15 00:53:07;;;;;;;10.23;6.00;;;;;;;3.68;100.00;99962.34;4968466;28;20043;-55
2021/03/15 00:55:34;;;;;;;10.85;6.18;;;;;;;3.67;100.00;99956.41;4968030;28;20507;-61
2021/03/15 00:58:00;;;;;;;12.00;6.30;;;;;;;3.79;100.00;99954.41;4968096;28;20051;-56
2021/03/15 01:00:31;;;;;;;8.38;6.18;;;;;;;3.78;100.00;99959.38;4967560;28;20054;-61
2021/03/15 01:02:57;;;;;;;11.07;5.68;;;;;;;3.73;100.00;99948.19;4967913;28;20534;-60
2021/03/15 01:05:31;;;;;;;16.02;6.53;;;;;;;3.69;100.00;99957.31;4967772;28;20051;-59
2021/03/15 01:07:58;;;;;;;12.52;5.90;;;;;;;3.64;100.00;99952.88;4967746;28;20050;-60
2021/03/15 01:10:27;;;;;;;9.50;6.10;;;;;;;3.61;100.00;99951.09;4967803;28;20055;-61
2021/03/15 01:12:54;;;;;;;11.90;5.20;;;;;;;3.67;100.00;99946.28;4967934;28;20050;-61
2021/03/15 01:15:21;;;;;;;9.82;5.30;;;;;;;3.67;100.00;99946.28;4967284;28;20038;-61
2021/03/15 01:17:48;;;;;;;15.32;5.60;;;;;;;3.55;100.00;99951.69;4967419;28;20053;-60
2021/03/15 01:20:15;;;;;;;8.32;5.32;;;;;;;3.68;100.00;99950.53;4967766;28;20050;-61
2021/03/15 01:22:42;;;;;;;8.40;5.97;;;;;;;3.75;100.00;99939.88;4967205;28;20074;-63
2021/03/15 01:25:10;;;;;;;8.40;4.50;;;;;;;3.68;100.00;99937.03;4967643;28;20058;-58
2021/03/15 01:27:36;;;;;;;8.98;4.60;;;;;;;3.69;100.00;99941.28;4967021;28;20043;-62
2021/03/15 01:30:15;;;;;;;9.65;4.97;;;;;;;3.67;100.00;99930.22;4967538;28;20050;-63
2021/03/15 01:32:41;;;;;;;11.05;4.88;;;;;;;3.69;100.00;99933.69;4966538;28;20047;-57
2021/03/15 01:35:09;;;;;;;8.50;4.35;;;;;;;3.56;100.00;99923.06;4967555;28;20135;-63
2021/03/15 01:37:35;;;;;;;8.70;5.05;;;;;;;3.48;100.00;99934.53;4966648;28;20149;-60
2021/03/15 01:40:03;;;;;;;8.65;4.70;;;;;;;3.56;100.00;99932.34;4967296;28;20505;-63
2021/03/15 01:42:30;;;;;;;6.95;4.60;;;;;;;3.52;100.00;99933.00;4966753;28;20047;-59
2021/03/15 01:44:56;;;;;;;7.13;4.32;;;;;;;3.47;100.00;99935.34;4967091;28;20051;-62
2021/03/15 01:47:25;;;;;;;8.90;4.85;;;;;;;3.61;100.00;99932.53;4966692;28;20485;-60
2021/03/15 01:49:52;;;;;;;11.32;5.35;;;;;;;3.63;100.00;99936.81;4967586;28;20073;-63
2021/03/15 01:52:21;;;;;;;9.43;4.97;;;;;;;3.63;100.00;99926.72;4959696;28;20438;-58
2021/03/15 01:54:47;;;;;;;9.23;4.82;;;;;;;3.70;100.00;99926.16;4966958;28;20053;-61
2021/03/15 01:57:14;;;;;;;8.02;4.72;;;;;;;3.65;100.00;99926.75;4966072;28;20386;-58
2021/03/15 01:59:41;;;;;;;8.00;4.80;;;;;;;3.73;100.00;99927.94;4966574;28;20064;-58
2021/03/15 02:02:07;;;;;;;9.93;5.03;;;;;;;3.58;100.00;99913.88;4967185;28;20054;-62
2021/03/15 02:04:34;;;;;;;8.02;4.25;;;;;;;3.69;100.00;99916.81;4966515;28;20050;-61
2021/03/15 02:07:04;;;;;;;7.75;4.70;;;;;;;3.66;100.00;99904.06;4966829;28;20081;-61
2021/03/15 02:09:31;;;;;;;9.70;5.07;;;;;;;3.68;100.00;99911.69;4967054;28;20047;-61
2021/03/15 02:12:37;;;;;;;8.55;4.97;;;;;;;3.68;100.00;99907.50;4966853;28;20051;-61
2021/03/15 02:15:21;;;;;;;10.18;4.95;;;;;;;3.63;100.00;99908.97;4935034;28;20054;-62
2021/03/15 02:17:58;;;;;;;8.02;4.82;;;;;;;3.71;100.00;99894.13;4966570;28;20054;-60
2021/03/15 02:20:28;;;;;;;9.85;4.78;;;;;;;3.65;100.00;99907.41;4960481;28;20170;-60
2021/03/15 02:23:12;;;;;;;8.70;4.95;;;;;;;3.57;100.00;99891.88;4967196;28;20046;-62
2021/03/15 02:26:04;;;;;;;8.93;5.05;;;;;;;3.63;100.00;99891.25;4965956;28;20042;-60
2021/03/15 02:29:02;;;;;;;10.77;5.60;;;;;;;3.50;100.00;99894.97;4960869;28;20043;-57
2021/03/15 02:31:44;;;;;;;8.45;5.38;;;;;;;3.69;100.00;99893.16;4960193;28;20042;-59
2021/03/15 02:34:33;;;;;;;10.75;5.53;;;;;;;3.53;100.00;99892.56;4966243;28;20050;-61
2021/03/15 02:37:06;;;;;;;9.70;5.13;;;;;;;3.48;100.00;99888.13;4966027;28;20058;-62
2021/03/15 02:39:38;;;;;;;8.65;4.63;;;;;;;3.63;100.00;99885.34;4966334;28;20142;-63
2021/03/15 02:42:09;;;;;;;9.05;5.05;;;;;;;3.67;100.00;99883.00;4966463;28;20051;-60
2021/03/15 02:44:37;;;;;;;9.65;5.10;;;;;;;3.70;100.00;99883.13;4965985;28;20055;-62
2021/03/15 02:47:11;;;;;;;10.25;5.30;;;;;;;3.65;100.00;99881.19;4965873;28;20651;-59
2021/03/15 02:49:41;;;;;;;9.45;5.30;;;;;;;3.65;100.00;99884.63;4965284;28;20413;-59
2021/03/15 02:52:10;;;;;;;11.40;5.75;;;;;;;3.73;100.00;99882.38;4966107;28;20137;-57
2021/03/15 02:54:39;;;;;;;12.07;5.65;;;;;;;3.65;100.00;99881.19;4965504;28;20043;-58
2021/03/15 02:57:07;;;;;;;14.20;5.70;;;;;;;3.59;100.00;99886.88;4966016;28;20054;-58
2021/03/15 02:59:37;;;;;;;12.23;5.25;;;;;;;3.75;100.00;99881.63;4965046;28;20046;-62
2021/03/15 03:02:04;;;;;;;12.35;5.57;;;;;;;3.77;100.00;99885.09;4966140;28;20531;-63
2021/03/15 03:04:32;;;;;;;12.75;6.10;;;;;;;3.63;100.00;99883.66;4965807;28;20097;-58
2021/03/15 03:07:00;;;;;;;18.70;6.10;;;;;;;3.74;100.00;99887.47;4965936;28;20341;-58
2021/03/15 03:09:27;;;;;;;10.80;5.32;;;;;;;3.67;100.00;99880.47;4965971;28;20051;-59
2021/03/15 03:11:55;;;;;;;10.18;5.85;;;;;;;3.71;100.00;99886.53;4966192;28;20141;-61
2021/03/15 03:14:25;;;;;;;10.82;6.03;;;;;;;3.81;100.00;99894.53;4965951;28;20453;-60
2021/03/15 03:16:56;;;;;;;8.70;5.40;;;;;;;3.76;100.00;99885.03;4966292;28;20047;-59
2021/03/15 03:19:23;;;;;;;11.50;5.47;;;;;;;3.64;100.00;99890.44;4966158;28;20055;-59
2021/03/15 03:21:52;;;;;;;11.82;5.88;;;;;;;3.65;100.00;99883.72;4966071;28;20057;-61
2021/03/15 03:24:21;;;;;;;9.25;5.63;;;;;;;3.67;100.00;99885.53;4958873;28;20054;-60
2021/03/15 03:26:48;;;;;;;13.10;6.40;;;;;;;3.70;100.00;99890.72;4965747;28;20062;-59
2021/03/15 03:29:16;;;;;;;12.75;6.20;;;;;;;3.77;100.00;99880.03;4966409;28;20517;-59
2021/03/15 03:31:47;;;;;;;10.98;6.18;;;;;;;3.65;100.00;99886.25;4965796;28;20043;-62
2021/03/15 03:34:23;;;;;;;13.18;5.82;;;;;;;3.54;100.00;99889.22;4965685;28;20046;-59
2021/03/15 03:37:05;;;;;;;11.45;5.53;;;;;;;3.66;100.00;99883.81;4966333;28;20070;-60
2021/03/15 03:39:31;;;;;;;9.77;5.78;;;;;;;3.49;100.00;99885.66;4965685;28;20054;-56
2021/03/15 03:41:58;;;;;;;10.00;5.40;;;;;;;3.51;100.00;99888.22;4966190;28;20047;-63
2021/03/15 03:44:24;;;;;;;10.18;6.07;;;;;;;3.30;100.00;99881.50;4966425;28;20054;-60
2021/03/15 03:46:51;;;;;;;10.85;5.78;;;;;;;3.27;100.00;99875.44;4965552;28;20073;-60
2021/03/15 03:49:18;;;;;;;9.80;5.80;;;;;;;3.13;100.00;99882.44;4958778;28;20062;-59
2021/03/15 03:52:07;;;;;;;10.40;5.63;;;;;;;3.04;100.00;99871.94;4965434;28;20058;-62
2021/03/15 03:54:45;;;;;;;12.63;6.63;;;;;;;2.97;100.00;99869.97;4960555;28;20497;-61
2021/03/15 03:57:15;;;;;;;12.40;6.03;;;;;;;3.00;100.00;99872.59;4965524;28;20938;-58
2021/03/15 03:59:47;;;;;;;12.65;6.95;;;;;;;3.06;100.00;99876.28;4965213;28;20113;-62
2021/03/15 04:02:16;;;;;;;16.63;6.13;;;;;;;3.09;100.00;99875.53;4965509;28;20373;-62
2021/03/15 04:04:50;;;;;;;12.98;6.00;;;;;;;3.04;100.00;99879.53;4965318;28;20047;-62
2021/03/15 04:07:26;;;;;;;11.68;5.85;;;;;;;3.01;100.00;99879.41;4965035;28;20047;-58
2021/03/15 04:10:03;;;;;;;13.63;6.65;;;;;;;3.00;100.00;99867.53;4966591;28;20759;-59
2021/03/15 04:12:32;;;;;;;11.55;5.68;;;;;;;2.99;100.00;99873.41;4966429;28;20152;-62
2021/03/15 04:15:01;;;;;;;10.95;5.72;;;;;;;2.92;100.00;99869.78;4967958;28;20062;-58
2021/03/15 04:17:34;;;;;;;10.25;5.70;;;;;;;2.81;100.00;99876.00;4968984;28;20105;-62
2021/03/15 04:20:06;;;;;;;12.45;6.20;;;;;;;2.77;100.00;99880.09;4969831;28;20051;-62
2021/03/15 04:22:38;;;;;;;9.95;5.93;;;;;;;2.73;100.00;99878.22;4967221;28;20074;-60
2021/03/15 04:25:06;;;;;;;14.98;5.72;;;;;;;2.65;100.00;99871.97;4966643;28;20054;-60
2021/03/15 04:27:33;;;;;;;12.68;5.97;;;;;;;2.63;100.00;99871.00;4968772;28;20050;-61
2021/03/15 04:30:01;;;;;;;12.25;5.93;;;;;;;2.59;100.00;99870.81;4969168;28;20058;-61
2021/03/15 04:32:28;;;;;;;11.32;5.82;;;;;;;2.53;100.00;99873.94;4966708;28;20101;-50
2021/03/15 04:34:55;;;;;;;12.18;6.07;;;;;;;2.51;100.00;99875.56;4968842;28;20077;-58
2021/03/15 04:37:24;;;;;;;10.85;6.53;;;;;;;2.52;100.00;99875.59;4967525;28;20058;-56
2021/03/15 04:39:53;;;;;;;15.13;6.22;;;;;;;2.52;100.00;99869.69;4968024;28;20046;-53
2021/03/15 04:42:21;;;;;;;14.50;7.30;;;;;;;2.41;100.00;99869.22;4960725;28;20058;-59
2021/03/15 04:44:48;;;;;;;15.43;6.88;;;;;;;2.62;100.00;99876.88;4967330;28;20458;-56
2021/03/15 04:47:15;;;;;;;16.17;6.93;;;;;;;2.70;100.00;99872.16;4967513;28;20535;-54
2021/03/15 04:49:42;;;;;;;15.73;7.70;;;;;;;2.76;100.00;99872.44;4967374;28;20070;-55
2021/03/15 04:52:10;;;;;;;16.23;8.07;;;;;;;2.79;100.00;99868.38;4968219;28;20050;-56
2021/03/15 04:54:37;;;;;;;12.38;6.90;;;;;;;2.87;100.00;99865.31;4968896;28;20055;-53
2021/03/15 04:57:04;;;;;;;13.07;6.72;;;;;;;2.79;100.00;99872.56;4969327;28;20421;-56
2021/03/15 04:59:33;;;;;;;11.88;6.72;;;;;;;2.78;100.00;99866.66;4969091;28;20053;-55
2021/03/15 05:02:01;;;;;;;17.20;7.40;;;;;;;2.85;100.00;99867.75;4969086;28;20086;-56
2021/03/15 05:04:29;;;;;;;16.00;7.68;;;;;;;2.89;100.00;99863.72;4969503;28;20468;-47
2021/03/15 05:06:56;;;;;;;17.77;7.13;;;;;;;3.06;100.00;99863.63;4968837;28;20057;-51
2021/03/15 05:09:36;;;;;;;12.52;7.15;;;;;;;2.91;100.00;99860.47;4968984;28;20051;-57
2021/03/15 05:12:24;;;;;;;12.38;6.10;;;;;;;3.16;100.00;99861.50;4960620;28;20055;-57
2021/03/15 05:14:56;;;;;;;14.63;6.15;;;;;;;3.19;99.45;99862.50;4969021;28;20094;-56
2021/03/15 05:17:23;;;;;;;13.73;6.35;;;;;;;3.11;99.35;99863.81;4970102;28;20619;-52
2021/03/15 05:19:52;;;;;;;14.65;6.47;;;;;;;3.07;99.72;99864.50;4969062;28;20556;-52
2021/03/15 05:22:18;;;;;;;12.15;6.45;;;;;;;3.00;99.69;99863.34;4960221;28;20098;-54
2021/03/15 05:24:45;;;;;;;15.70;7.05;;;;;;;2.92;100.00;99859.66;4967580;28;20532;-58
2021/03/15 05:27:13;;;;;;;14.70;7.30;;;;;;;2.96;100.00;99861.53;4968585;28;20058;-52
2021/03/15 05:29:41;;;;;;;12.00;7.38;;;;;;;2.80;100.00;99865.03;4968485;28;20050;-57
2021/03/15 05:32:13;;;;;;;13.32;7.45;;;;;;;2.90;100.00;99861.25;4968894;28;20054;-49
2021/03/15 05:34:40;;;;;;;15.85;7.10;;;;;;;2.76;99.99;99868.22;4968543;28;20183;-52
2021/03/15 05:37:11;;;;;;;16.38;7.03;;;;;;;2.82;99.46;99867.66;4968458;28;20058;-52
2021/03/15 05:39:40;;;;;;;11.85;6.47;;;;;;;2.81;99.24;99866.75;4968500;28;20047;-50
2021/03/15 05:42:21;;;;;;;14.45;8.18;;;;;;;2.89;99.11;99858.66;4968911;28;20054;-52
2021/03/15 05:45:10;;;;;;;15.63;8.15;;;;;;;2.98;99.56;99861.56;4967887;28;20057;-55
2021/03/15 05:48:03;;;;;;;15.38;7.88;;;;;;;3.06;98.07;99868.69;4962718;28;20053;-56
2021/03/15 05:51:15;;;;;;;16.17;8.02;;;;;;;3.00;99.22;99862.50;4961887;28;20043;-55
2021/03/15 05:54:10;;;;;;;14.95;7.47;;;;;;;3.22;97.47;99869.31;4949821;28;20133;-53
2021/03/15 05:57:16;;;;;;;15.75;7.70;;;;;;;3.32;97.36;99863.84;4962976;28;20042;-47
2021/03/15 05:59:59;;;;;;;15.07;8.35;;;;;;;3.31;96.92;99862.97;4965551;28;20509;-49
2021/03/15 06:02:52;;;;;;;15.90;8.57;;;;;;;3.30;97.35;99860.38;4961007;28;20058;-57
2021/03/15 06:05:25;;;;;;;11.63;8.32;;;;;;;3.41;96.63;99861.69;4959694;28;20540;-52
2021/03/15 06:08:01;;;;;;;16.23;8.80;;;;;;;3.25;97.86;99856.81;4967852;28;20073;-53
2021/03/15 06:11:09;;;;;;;16.67;9.18;;;;;;;3.27;96.86;99866.19;4962027;28;20057;-53
2021/03/15 06:13:36;;;;;;;20.13;9.02;;;;;;;3.19;97.38;99867.53;4962285;28;20047;-49
2021/03/15 06:16:05;;;;;;;15.88;9.02;;;;;;;3.17;97.25;99860.69;4967371;28;20152;-53
2021/03/15 06:18:33;;;;;;;19.00;9.25;;;;;;;3.19;97.40;99862.50;4967197;28;20055;-49
2021/03/15 06:20:59;;;;;;;17.63;9.18;;;;;;;3.01;98.19;99860.06;4967544;28;20059;-54
2021/03/15 06:23:28;;;;;;;17.70;9.15;;;;;;;3.27;97.58;99868.72;4967353;28;20528;-53
2021/03/15 06:25:55;;;;;;;16.05;8.70;;;;;;;4.22;94.07;99858.94;4967483;28;20050;-49
2021/03/15 06:28:23;;;;;;;11.70;7.28;;;;;;;4.82;89.80;99859.44;4967286;28;20051;-47
2021/03/15 06:30:52;;;;;;;11.85;7.07;;;;;;;5.39;85.09;99863.91;4967191;28;20066;-51
2021/03/15 06:33:20;;;;;;;15.15;7.50;;;;;;;4.90;87.02;99868.19;4967470;28;20055;-45
2021/03/15 06:35:49;;;;;;;13.73;7.40;;;;;;;4.62;88.70;99868.00;4966952;28;20058;-52
2021/03/15 06:38:17;;;;;;;14.27;7.85;;;;;;;4.22;90.44;99866.56;4966743;28;20062;-47
2021/03/15 06:41:01;;;;;;;12.10;8.00;;;;;;;4.18;91.96;99859.63;4962937;28;20043;-57
2021/03/15 06:43:28;;;;;;;13.40;8.75;;;;;;;4.16;91.97;99868.84;4966596;28;20046;-59
2021/03/15 06:45:55;;;;;;;11.82;7.93;;;;;;;4.15;92.14;99867.13;4966188;28;20039;-55
2021/03/15 06:48:23;;;;;;;15.30;8.85;;;;;;;4.07;91.96;99860.09;4966387;28;20058;-57
2021/03/15 06:50:51;;;;;;;15.70;7.97;;;;;;;3.99;92.56;99860.59;4966149;28;20057;-60
2021/03/15 06:53:18;;;;;;;14.65;8.60;;;;;;;3.95;92.41;99864.69;4959005;28;20043;-52
2021/03/15 06:55:46;;;;;;;13.85;8.32;;;;;;;3.88;92.77;99879.56;4966018;28;20049;-56
2021/03/15 06:58:27;;;;;;;17.63;8.70;;;;;;;3.68;92.73;99869.53;4965414;28;20051;-58
2021/03/15 07:01:25;;;;;;;16.67;9.60;;;;;;;4.02;93.13;99874.25;4966294;28;20050;-56
2021/03/15 07:04:11;;;;;;;13.75;9.02;;;;;;;4.17;93.46;99873.13;4964570;28;20055;-58
2021/03/15 07:06:42;;;;;;;16.70;8.45;;;;;;;4.05;93.39;99871.81;4959890;28;20046;-57
2021/03/15 07:09:13;;;;;;;12.85;7.80;;;;;;;4.16;91.84;99873.91;4965221;28;20076;-58
2021/03/15 07:11:39;;;;;;;15.05;8.57;;;;;;;4.34;91.91;99874.59;4963812;28;20047;-60
2021/03/15 07:14:06;;;;;;;15.07;8.85;;;;;;;4.69;91.52;99877.56;4965292;28;20394;-51
2021/03/15 07:16:34;;;;;;;16.25;8.40;;;;;;;4.79;89.83;99880.47;4965061;28;20047;-56
2021/03/15 07:19:20;;;;;;;14.30;8.20;;;;;;;4.97;89.16;99885.34;4966753;28;20109;-50
2021/03/15 07:21:47;;;;;;;12.10;6.93;;;;;;;4.96;88.31;99886.16;4965715;28;20051;-58
2021/03/15 07:24:14;;;;;;;21.73;8.68;;;;;;;4.79;88.93;99877.94;4966134;28;20047;-54
2021/03/15 07:26:45;;;;;;;13.77;8.13;;;;;;;4.67;88.98;99875.00;4966143;28;20547;-48
2021/03/15 07:29:14;;;;;;;15.70;8.43;;;;;;;4.77;89.66;99891.41;4966734;28;20050;-55
2021/03/15 07:31:49;;;;;;;17.80;8.73;;;;;;;4.70;89.56;99881.81;4965738;28;20627;-55
2021/03/15 07:34:20;;;;;;;14.32;7.85;;;;;;;4.59;88.96;99881.44;4965828;28;20607;-56
2021/03/15 07:36:59;;;;;;;12.13;7.60;;;;;;;4.65;89.96;99883.34;4965914;28;20501;-56
2021/03/15 07:39:29;;;;;;;13.02;8.77;;;;;;;4.67;89.03;99884.25;4958230;28;20051;-57
2021/03/15 07:41:58;;;;;;;12.52;8.20;;;;;;;4.85;89.87;99883.25;4965003;28;20039;-53
2021/03/15 07:44:27;;;;;;;14.05;8.20;;;;;;;5.05;89.79;99878.88;4965540;28;20102;-50
2021/03/15 07:47:02;;;;;;;14.65;8.40;;;;;;;5.12;88.38;99879.94;4964296;28;20051;-47
2021/03/15 07:49:31;;;;;;;11.93;7.53;;;;;;;5.07;88.57;99877.22;4965169;28;20130;-51
2021/03/15 07:52:03;;;;;;;14.68;8.55;;;;;;;5.12;88.89;99882.47;4965850;28;21004;-55
2021/03/15 07:54:35;;;;;;;15.35;8.93;;;;;;;5.22;88.42;99882.00;4965032;28;20054;-53
2021/03/15 07:57:24;;;;;;;12.20;8.50;;;;;;;5.41;86.77;99882.56;4964179;28;20157;-52
2021/03/15 07:59:58;;;;;;;16.95;8.75;;;;;;;5.54;86.90;99879.63;4965061;28;20129;-53
2021/03/15 08:02:38;;;;;;;15.85;8.05;;;;;;;5.60;86.12;99879.84;4964010;28;20043;-58
2021/03/15 08:05:08;;;;;;;14.75;8.07;;;;;;;5.79;84.96;99881.31;4965371;28;20058;-55
2021/03/15 08:07:35;;;;;;;12.65;7.50;;;;;;;6.02;85.18;99894.75;4965436;28;20141;-54
2021/03/15 08:10:02;;;;;;;15.45;8.15;;;;;;;6.10;85.21;99889.09;4965688;28;20062;-55
2021/03/15 08:12:34;;;;;;;12.30;6.85;;;;;;;5.96;84.23;99889.47;4965396;28;20414;-53
2021/03/15 08:15:07;;;;;;;10.48;6.35;;;;;;;5.80;85.49;99895.72;4965588;28;20047;-58
2021/03/15 08:17:40;;;;;;;14.63;7.65;;;;;;;6.17;83.38;99892.69;4965324;28;20508;-53
2021/03/15 08:20:08;;;;;;;8.70;6.43;;;;;;;6.48;82.66;99903.78;4948647;28;20109;-52
2021/03/15 08:22:58;;;;;;;11.10;6.70;;;;;;;6.55;82.01;99901.44;4965279;28;20641;-58
2021/03/15 08:25:25;;;;;;;9.95;6.53;;;;;;;6.19;82.10;99906.28;4959032;28;20051;-54
2021/03/15 08:28:01;;;;;;;8.45;5.78;;;;;;;6.36;81.55;99906.81;4963658;28;20164;-53
2021/03/15 08:30:33;;;;;;;11.32;6.53;;;;;;;6.35;84.23;99902.53;4959582;28;20109;-54
2021/03/15 08:33:04;;;;;;;11.15;6.53;;;;;;;6.42;81.18;99904.44;4963496;28;20057;-53
2021/03/15 08:35:31;;;;;;;13.75;7.13;;;;;;;6.04;84.42;99896.53;4964738;28;20051;-57
2021/03/15 08:37:59;;;;;;;10.77;6.15;;;;;;;6.07;82.97;99899.16;4965974;28;20047;-46
2021/03/15 08:40:41;;;;;;;8.77;6.13;;;;;;;5.92;84.43;99896.16;4964547;28;20047;-55
2021/03/15 08:43:17;;;;;;;9.77;6.45;;;;;;;6.21;84.00;99894.50;4965298;28;20626;-50
2021/03/15 08:45:51;;;;;;;8.93;5.93;;;;;;;5.84;85.21;99892.47;4964737;28;20073;-53
2021/03/15 08:48:33;;;;;;;8.80;5.60;;;;;;;5.81;84.05;99892.38;4958589;28;20058;-51
2021/03/15 08:51:07;;;;;;;10.32;5.60;;;;;;;5.80;84.88;99883.03;4965135;28;20150;-51
2021/03/15 08:53:37;;;;;;;10.27;6.18;;;;;;;5.91;88.24;99879.13;4963271;28;20054;-49
2021/03/15 08:56:11;;;;;;;9.55;7.13;;;;;;;5.95;85.79;99880.97;4965354;28;20058;-55
2021/03/15 08:58:42;;;;;;;9.90;6.45;;;;;;;6.30;84.62;99876.97;4968245;28;20054;-49
2021/03/15 09:01:15;;;;;;;11.48;6.40;;;;;;;6.14;84.17;99872.25;4969132;28;20129;-57
2021/03/15 09:03:51;;;;;;;9.63;5.93;;;;;;;6.03;84.68;99873.63;4952793;28;20117;-51
2021/03/15 09:06:36;;;;;;;9.60;5.85;;;;;;;6.33;83.77;99874.53;4962245;28;20055;-53
2021/03/15 09:09:11;;;;;;;8.73;5.35;;;;;;;6.66;85.00;99872.94;4970024;28;20055;-49
2021/03/15 09:11:38;;;;;;;9.03;5.50;;;;;;;7.02;83.41;99873.03;4969709;28;20122;-55
2021/03/15 09:14:25;;;;;;;6.40;5.05;;;;;;;7.04;80.77;99874.81;4968519;28;20665;-52
2021/03/15 09:16:57;;;;;;;6.53;4.93;;;;;;;7.06;82.52;99879.94;4969930;28;20057;-52
2021/03/15 09:19:32;;;;;;;6.47;4.40;;;;;;;7.01;81.37;99871.31;4969123;28;20059;-56
2021/03/15 09:22:23;;;;;;;6.88;4.57;;;;;;;6.75;81.91;99868.94;4969414;28;20046;-48
2021/03/15 09:25:03;;;;;;;4.57;3.97;;;;;;;6.59;82.16;99877.81;4968583;28;20051;-57
2021/03/15 09:27:40;;;;;;;5.45;3.80;;;;;;;6.86;84.18;99864.16;4962516;28;20046;-56
2021/03/15 09:30:27;;;;;;;9.77;4.28;;;;;;;7.00;85.74;99870.47;4968564;28;20057;-56
2021/03/15 09:32:55;;;;;;;6.82;3.60;;;;;;;7.53;81.10;99865.00;4968614;28;20051;-52
2021/03/15 09:35:24;;;;;;;5.75;3.75;;;;;;;7.48;80.23;99862.34;4968059;28;20479;-55
2021/03/15 09:38:01;;;;;;;6.38;3.33;;;;;;;7.60;78.47;99861.81;4967400;28;20049;-52
2021/03/15 09:40:37;;;;;;;8.40;4.10;;;;;;;7.48;85.68;99864.91;4962148;28;20046;-51
2021/03/15 09:43:22;;;;;;;6.20;3.58;;;;;;;8.07;80.46;99865.44;4960675;28;20051;-52
2021/03/15 09:46:00;;;;;;;7.38;3.70;;;;;;;8.20;80.18;99853.84;4966543;28;20509;-57
2021/03/15 09:48:29;;;;;;;8.20;3.92;;;;;;;8.04;80.08;99856.84;4963985;28;20097;-48
2021/03/15 09:51:01;;;;;;;4.68;3.38;;;;;;;7.94;80.40;99860.03;4966982;28;20109;-53
2021/03/15 09:53:28;;;;;;;7.97;4.05;;;;;;;7.85;83.36;99858.13;4966580;28;20101;-53
2021/03/15 09:56:06;;;;;;;6.55;3.58;;;;;;;7.62;79.74;99863.53;4951068;28;20374;-53
2021/03/15 09:58:33;;;;;;;4.95;3.65;;;;;;;8.03;78.35;99856.00;4967738;28;20130;-55
2021/03/15 10:00:59;;;;;;;5.28;3.55;;;;;;;7.98;78.62;99855.03;4968372;28;20117;-54
2021/03/15 10:03:27;;;;;;;6.93;3.13;;;;;;;7.47;79.01;99849.59;4967169;28;20054;-59
2021/03/15 10:05:56;;;;;;;4.28;2.67;;;;;;;7.95;77.53;99857.53;4967304;28;20046;-59
2021/03/15 10:08:23;;;;;;;6.40;2.72;;;;;;;7.88;78.20;99853.13;4967015;28;20051;-54
2021/03/15 10:10:53;;;;;;;6.13;3.40;;;;;;;8.22;76.14;99857.25;4967700;28;20109;-49
2021/03/15 10:13:22;;;;;;;6.70;3.22;;;;;;;9.19;76.54;99849.84;4960331;28;20074;-53
2021/03/15 10:15:48;;;;;;;2.65;2.20;;;;;;;8.54;73.54;99841.81;4966791;28;20058;-49
2021/03/15 10:18:17;;;;;;;4.70;1.90;;;;;;;9.23;68.63;99840.53;4967242;28;20054;-50
2021/03/15 10:20:44;;;;;;;4.25;2.13;;;;;;;9.13;69.93;99837.84;4966903;28;20047;-51
2021/03/15 10:23:18;;;;;;;4.93;2.10;;;;;;;9.09;71.74;99846.28;4968050;28;20058;-54
2021/03/15 10:25:57;;;;;;;2.55;1.33;;;;;;;9.67;67.59;99839.59;4966729;28;20545;-53
2021/03/15 10:28:25;;;;;;;1.88;1.70;;;;;;;10.10;66.51;99844.47;4961098;28;20043;-59
2021/03/15 10:31:12;;;;;;;4.07;2.17;;;;;;;10.15;66.79;99837.72;4952395;28;20409;-49
2021/03/15 10:33:49;;;;;;;2.22;2.03;;;;;;;10.50;64.14;99840.78;4967252;28;20046;-50
2021/03/15 10:36:21;;;;;;;1.48;1.10;;;;;;;13.34;53.83;99841.81;4966529;28;20038;-50
2021/03/15 10:38:48;;;;;;;2.00;1.75;;;;;;;16.33;46.83;99843.72;4964754;28;20050;-56
2021/03/15 10:41:16;;;;;;;2.20;1.40;;;;;;;16.50;43.22;99839.22;4966253;28;20047;-59
2021/03/15 10:43:45;;;;;;;3.83;1.48;;;;;;;16.57;43.65;99842.56;4966696;28;20051;-57
2021/03/15 10:46:24;;;;;;;2.58;1.63;;;;;;;15.25;46.87;99830.94;4964505;28;20497;-61
2021/03/15 10:48:52;;;;;;;2.40;1.40;;;;;;;14.18;49.97;99828.84;4967342;28;20051;-54
2021/03/15 10:51:18;;;;;;;2.53;1.27;;;;;;;14.52;49.38;99831.34;4959873;28;20101;-58
2021/03/15 10:53:55;;;;;;;1.55;1.10;;;;;;;12.92;53.38;99822.00;4966762;28;20062;-61
2021/03/15 10:56:23;;;;;;;1.30;1.20;;;;;;;13.70;49.60;99827.25;4966584;28;20042;-57
2021/03/15 10:58:50;;;;;;;3.95;1.30;;;;;;;13.49;50.71;99821.22;4966608;28;20078;-58
2021/03/15 11:01:35;;;;;;;1.33;0.95;;;;;;;13.27;50.78;99819.53;4966424;28;20047;-59
2021/03/15 11:04:12;;;;;;;1.38;0.95;;;;;;;12.59;50.21;99817.66;4966385;28;20039;-54
2021/03/15 11:06:39;;;;;;;1.98;1.27;;;;;;;11.09;55.11;99819.19;4965815;28;20050;-50
2021/03/15 11:09:08;;;;;;;2.65;0.90;;;;;;;10.19;57.74;99811.34;4966843;28;20062;-52
2021/03/15 11:11:34;;;;;;;4.75;1.50;;;;;;;10.29;59.75;99804.66;4966116;28;20057;-55
2021/03/15 11:14:07;;;;;;;2.85;1.30;;;;;;;10.27;61.60;99803.81;4966947;28;20067;-56
2021/03/15 11:16:35;;;;;;;2.88;1.17;;;;;;;10.14;59.40;99805.31;4965948;28;20050;-56
2021/03/15 11:19:05;;;;;;;1.40;0.82;;;;;;;11.38;55.84;99793.84;4966415;28;20886;-55
2021/03/15 11:21:34;;;;;;;2.13;1.40;;;;;;;10.80;57.00;99803.53;4965636;28;20046;-55
2021/03/15 11:24:01;;;;;;;0.82;0.80;;;;;;;10.26;58.84;99802.94;4963916;28;20121;-54
2021/03/15 11:26:41;;;;;;;1.88;1.05;;;;;;;9.86;60.90;99806.63;4964213;28;20081;-54
2021/03/15 11:29:08;;;;;;;1.77;1.38;;;;;;;9.46;63.05;99800.91;4962960;28;20126;-53
2021/03/15 11:31:34;;;;;;;1.00;0.90;;;;;;;9.13;62.56;99802.06;4964200;28;20043;-55
2021/03/15 11:34:01;;;;;;;3.00;1.20;;;;;;;9.17;64.73;99800.44;4965065;28;20074;-55
2021/03/15 11:36:31;;;;;;;1.83;0.90;;;;;;;11.87;58.47;99795.06;4965803;28;20058;-55
2021/03/15 11:39:01;;;;;;;1.33;0.60;;;;;;;13.78;52.31;99797.22;4966684;28;20050;-58
2021/03/15 11:41:32;;;;;;;0.88;0.82;;;;;;;15.06;45.73;99794.94;4963266;28;20514;-54
2021/03/15 11:44:00;;;;;;;2.45;0.80;;;;;;;14.77;46.12;99796.00;4966609;28;20051;-53
2021/03/15 11:46:27;;;;;;;1.05;0.70;;;;;;;12.27;50.21;99802.97;4965957;28;20043;-54
2021/03/15 11:48:53;;;;;;;1.77;0.77;;;;;;;11.39;54.66;99791.28;4963580;28;20042;-57
2021/03/15 11:51:20;;;;;;;1.17;1.08;;;;;;;10.89;58.90;99803.63;4963338;28;20050;-58
2021/03/15 11:53:50;;;;;;;1.38;1.20;;;;;;;10.05;61.92;99805.19;4963938;28;20123;-56